Time;durP1;ratioP1;P1;durP2;ratioP2;P2;SDS_P1;SDS_P2;PMS_P1;PMS_P2;Temp;Humidity;BMP_temperature;BMP_pressure;BME280_temperature;BME280_humidity;BME280_pressure;Samples;Min_cycle;Max_cycle;Signal;HPM_P1;HPM_P2
2023/01/22 00:00:10;;;;;;;;;;;3.90;78.40;;;;;;5036313;28;19976;-88
2023/01/22 00:02:36;;;;;;;;;;;3.90;78.40;;;;;;5036197;28;19978;-88
2023/01/22 00:05:02;;;;;;;;;;;4.00;78.80;;;;;;5036249;28;19990;-88
2023/01/22 00:07:27;;;;;;;;;;;4.10;78.60;;;;;;5018384;28;19945;-88
2023/01/22 00:09:53;;;;;;;;;;;4.20;78.20;;;;;;5036180;28;20036;-88
2023/01/22 00:12:18;;;;;;;;;;;4.20;77.80;;;;;;5036093;28;19937;-89
2023/01/22 00:14:45;;;;;;;;;;;4.30;78.00;;;;;;5035012;28;20436;-88
2023/01/22 00:17:11;;;;;;;;;;;4.30;77.30;;;;;;5034761;28;19946;-88
2023/01/22 00:19:36;;;;;;;;;;;4.20;77.70;;;;;;5034453;28;19942;-88
2023/01/22 00:22:02;;;;;;;;;;;4.20;78.70;;;;;;5034726;28;20398;-89
2023/01/22 00:24:27;;;;;;;;;;;4.20;78.90;;;;;;5034629;28;20015;-88
2023/01/22 00:26:53;;;;;;;;;;;4.10;78.80;;;;;;5034677;28;19937;-88
2023/01/22 00:29:18;;;;;;;;;;;4.00;78.70;;;;;;5034629;28;19946;-88
2023/01/22 00:31:44;;;;;;;;;;;4.00;78.00;;;;;;5034194;28;19943;-88
2023/01/22 00:34:09;;;;;;;;;;;3.90;77.50;;;;;;5034582;28;19939;-88
2023/01/22 00:36:35;;;;;;;;;;;3.90;77.30;;;;;;5034573;28;19981;-88
2023/01/22 00:39:00;;;;;;;;;;;3.90;77.50;;;;;;5034504;28;19944;-88
2023/01/22 00:41:26;;;;;;;;;;;4.00;78.20;;;;;;5034457;28;19942;-89
2023/01/22 00:43:51;;;;;;;;;;;4.00;78.10;;;;;;5034363;28;20322;-88
2023/01/22 00:46:17;;;;;;;;;;;4.10;76.20;;;;;;5034666;28;19948;-88
2023/01/22 00:48:48;;;;;;;;;;;4.10;76.40;;;;;;5033925;28;19946;-88
2023/01/22 00:51:14;;;;;;;;;;;4.00;77.70;;;;;;5033791;28;19951;-88
2023/01/22 00:53:40;;;;;;;;;;;3.80;78.50;;;;;;5034197;28;19955;-88
2023/01/22 00:56:06;;;;;;;;;;;3.70;79.00;;;;;;5034162;28;20481;-88
2023/01/22 00:58:32;;;;;;;;;;;3.70;79.90;;;;;;5033907;28;20032;-88
2023/01/22 01:00:57;;;;;;;;;;;3.80;79.20;;;;;;5034171;28;19940;-88
2023/01/22 01:03:25;;;;;;;;;;;3.70;78.30;;;;;;5034055;28;19966;-88
2023/01/22 01:05:55;;;;;;;;;;;3.60;78.40;;;;;;5034069;28;20465;-88
2023/01/22 01:08:21;;;;;;;;;;;3.50;77.60;;;;;;5034016;28;19939;-88
2023/01/22 01:10:46;;;;;;;;;;;3.60;78.40;;;;;;5034024;28;19943;-88
2023/01/22 01:13:12;;;;;;;;;;;3.70;76.50;;;;;;4966397;23;2133631;-88
2023/01/22 01:15:38;;;;;;;;;;;3.70;77.00;;;;;;5034959;28;20415;-87
2023/01/22 01:18:03;;;;;;;;;;;3.70;76.40;;;;;;5039382;28;19941;-88
2023/01/22 01:20:29;;;;;;;;;;;3.70;75.60;;;;;;5048293;28;19946;-88
2023/01/22 01:22:55;;;;;;;;;;;3.60;75.70;;;;;;5054369;28;19966;-88
2023/01/22 01:25:20;;;;;;;;;;;3.70;77.00;;;;;;5054664;28;19944;-88
2023/01/22 01:27:46;;;;;;;;;;;3.70;77.20;;;;;;5054637;28;19945;-88
2023/01/22 01:30:11;;;;;;;;;;;3.70;77.30;;;;;;5054588;28;19943;-88
2023/01/22 01:32:37;;;;;;;;;;;3.80;75.40;;;;;;5054547;28;19996;-88
2023/01/22 01:35:03;;;;;;;;;;;3.90;73.50;;;;;;5054466;28;19937;-88
2023/01/22 01:37:29;;;;;;;;;;;3.90;72.50;;;;;;5054371;28;19942;-88
2023/01/22 01:39:54;;;;;;;;;;;4.10;71.00;;;;;;5054365;28;19949;-88
2023/01/22 01:42:25;;;;;;;;;;;4.10;72.20;;;;;;5054342;28;20031;-88
2023/01/22 01:45:09;;;;;;;;;;;4.20;75.20;;;;;;5053403;28;20003;-88
2023/01/22 01:47:35;;;;;;;;;;;4.20;75.70;;;;;;5054217;28;19937;-88
2023/01/22 01:50:00;;;;;;;;;;;4.20;76.00;;;;;;5036145;28;19946;-88
2023/01/22 01:52:26;;;;;;;;;;;4.30;73.20;;;;;;5034151;28;19957;-88
2023/01/22 01:54:54;;;;;;;;;;;4.30;70.00;;;;;;5034047;28;19939;-88
2023/01/22 01:57:23;;;;;;;;;;;4.40;68.30;;;;;;5034083;28;19942;-89
2023/01/22 01:59:49;;;;;;;;;;;4.40;67.70;;;;;;5034099;28;19949;-88
2023/01/22 02:02:15;;;;;;;;;;;4.50;66.70;;;;;;5034089;28;19991;-88
2023/01/22 02:04:40;;;;;;;;;;;4.60;65.60;;;;;;5033951;28;19963;-88
2023/01/22 02:07:06;;;;;;;;;;;4.70;65.10;;;;;;5033943;28;19937;-88
2023/01/22 02:09:32;;;;;;;;;;;4.70;64.20;;;;;;5033863;28;19938;-87
2023/01/22 02:11:57;;;;;;;;;;;4.80;63.70;;;;;;5033871;28;20402;-88
2023/01/22 02:14:26;;;;;;;;;;;4.90;63.80;;;;;;5033672;28;19976;-88
2023/01/22 02:16:58;;;;;;;;;;;4.90;64.10;;;;;;5034012;28;19972;-88
2023/01/22 02:19:24;;;;;;;;;;;4.90;63.70;;;;;;5019137;28;19956;-88
2023/01/22 02:21:50;;;;;;;;;;;4.80;63.80;;;;;;5014244;28;19945;-88
2023/01/22 02:24:16;;;;;;;;;;;4.80;64.00;;;;;;5013898;28;20447;-88
2023/01/22 02:26:42;;;;;;;;;;;4.90;63.70;;;;;;5012651;28;19994;-87
2023/01/22 02:29:09;;;;;;;;;;;4.80;63.80;;;;;;5013915;28;19945;-88
2023/01/22 02:31:35;;;;;;;;;;;4.80;64.20;;;;;;5013863;28;19941;-88
2023/01/22 02:34:01;;;;;;;;;;;4.90;64.60;;;;;;5014832;28;20323;-88
2023/01/22 02:36:27;;;;;;;;;;;4.90;64.60;;;;;;5013695;28;19957;-88
2023/01/22 02:38:52;;;;;;;;;;;4.90;64.30;;;;;;5013756;28;19946;-88
2023/01/22 02:41:18;;;;;;;;;;;4.90;63.80;;;;;;5013971;28;19950;-88
2023/01/22 02:43:44;;;;;;;;;;;5.00;63.60;;;;;;5012345;28;19974;-88
2023/01/22 02:46:09;;;;;;;;;;;5.00;63.40;;;;;;5013580;28;19938;-88
2023/01/22 02:48:35;;;;;;;;;;;5.00;63.10;;;;;;5020713;28;20047;-88
2023/01/22 02:51:00;;;;;;;;;;;5.00;63.00;;;;;;5033039;28;20026;-88
2023/01/22 02:53:26;;;;;;;;;;;5.00;62.60;;;;;;5033233;28;19974;-88
2023/01/22 02:55:51;;;;;;;;;;;5.00;62.20;;;;;;5033004;28;20393;-88
2023/01/22 02:58:17;;;;;;;;;;;5.00;61.30;;;;;;5031987;28;19997;-88
2023/01/22 03:00:42;;;;;;;;;;;5.00;61.00;;;;;;5033160;28;19969;-88
2023/01/22 03:03:14;;;;;;;;;;;5.00;61.40;;;;;;5033082;28;20401;-88
2023/01/22 03:05:46;;;;;;;;;;;5.00;60.90;;;;;;5033155;28;19940;-88
2023/01/22 03:08:11;;;;;;;;;;;5.00;60.50;;;;;;5033139;28;19943;-88
2023/01/22 03:10:37;;;;;;;;;;;5.10;61.00;;;;;;5033102;28;20303;-88
2023/01/22 03:21:19;;;;;;;;;;;5.30;59.20;;;;;;5033287;28;19949;-88
2023/01/22 03:23:45;;;;;;;;;;;5.20;60.40;;;;;;5033089;28;19981;-88
2023/01/22 03:26:11;;;;;;;;;;;5.20;60.10;;;;;;5031634;28;20319;-88
2023/01/22 03:28:36;;;;;;;;;;;5.20;59.90;;;;;;5032922;28;19941;-88
2023/01/22 03:31:02;;;;;;;;;;;5.20;59.80;;;;;;5033160;28;20415;-88
2023/01/22 03:33:28;;;;;;;;;;;5.20;59.80;;;;;;5032831;28;20566;-88
2023/01/22 03:35:58;;;;;;;;;;;5.20;59.80;;;;;;5032822;28;19943;-88
2023/01/22 03:38:23;;;;;;;;;;;5.20;59.70;;;;;;5032864;28;20039;-88
2023/01/22 03:40:49;;;;;;;;;;;5.20;59.60;;;;;;5032756;28;19981;-88
2023/01/22 03:43:14;;;;;;;;;;;5.30;59.00;;;;;;5032676;28;19970;-88
2023/01/22 03:45:40;;;;;;;;;;;5.30;59.00;;;;;;5031450;28;20472;-88
2023/01/22 03:48:05;;;;;;;;;;;5.30;58.70;;;;;;5029499;28;20387;-88
2023/01/22 03:50:31;;;;;;;;;;;5.40;58.70;;;;;;5013219;28;20043;-88
2023/01/22 03:52:57;;;;;;;;;;;5.40;58.90;;;;;;5013106;28;19963;-88
2023/01/22 03:55:24;;;;;;;;;;;5.40;59.00;;;;;;5012845;28;20402;-88
2023/01/22 03:57:49;;;;;;;;;;;5.40;59.00;;;;;;5012923;28;19942;-88
2023/01/22 04:00:15;;;;;;;;;;;5.30;59.90;;;;;;5012910;28;20360;-88
2023/01/22 04:02:40;;;;;;;;;;;5.30;60.10;;;;;;5012883;28;19940;-88
2023/01/22 04:05:06;;;;;;;;;;;5.20;61.00;;;;;;5012863;28;19952;-88
2023/01/22 04:07:32;;;;;;;;;;;5.10;60.80;;;;;;5014519;28;19939;-88
2023/01/22 04:09:57;;;;;;;;;;;5.10;60.20;;;;;;5016391;28;19939;-89
2023/01/22 04:12:23;;;;;;;;;;;5.10;60.70;;;;;;5015069;28;19995;-88
2023/01/22 04:14:48;;;;;;;;;;;5.10;60.50;;;;;;5016209;28;19985;-88
2023/01/22 04:17:14;;;;;;;;;;;5.20;60.30;;;;;;5016306;28;20301;-88
2023/01/22 04:19:39;;;;;;;;;;;5.10;60.50;;;;;;5033987;28;20397;-88
2023/01/22 04:22:05;;;;;;;;;;;5.10;60.60;;;;;;5036013;28;19938;-88
2023/01/22 04:24:30;;;;;;;;;;;5.10;60.80;;;;;;5035867;28;19970;-88
2023/01/22 04:26:56;;;;;;;;;;;5.10;61.10;;;;;;5034637;28;20424;-88
2023/01/22 04:29:21;;;;;;;;;;;5.10;61.30;;;;;;5035846;28;20285;-88
2023/01/22 04:31:48;;;;;;;;;;;5.10;60.90;;;;;;5035822;28;19949;-88
2023/01/22 04:34:14;;;;;;;;;;;5.10;60.80;;;;;;5034511;28;20007;-88
2023/01/22 04:36:39;;;;;;;;;;;5.10;61.20;;;;;;5035680;28;20415;-88
2023/01/22 04:39:05;;;;;;;;;;;5.10;60.50;;;;;;5035672;28;19989;-88
2023/01/22 04:41:30;;;;;;;;;;;5.20;60.30;;;;;;5035624;28;20329;-88
2023/01/22 04:43:56;;;;;;;;;;;5.20;60.20;;;;;;5035465;28;20439;-88
2023/01/22 04:46:21;;;;;;;;;;;5.20;60.10;;;;;;5035505;28;19943;-88
2023/01/22 04:48:47;;;;;;;;;;;5.20;60.00;;;;;;5024581;28;19953;-89
2023/01/22 04:51:12;;;;;;;;;;;5.20;60.10;;;;;;5015672;28;20008;-88
2023/01/22 04:53:38;;;;;;;;;;;5.20;60.30;;;;;;5015537;28;19958;-88
2023/01/22 04:56:03;;;;;;;;;;;5.10;60.40;;;;;;5015464;28;19941;-88
2023/01/22 04:58:29;;;;;;;;;;;5.10;60.20;;;;;;5015505;28;20005;-88
2023/01/22 05:00:55;;;;;;;;;;;5.20;60.40;;;;;;5015544;28;20024;-88
2023/01/22 05:03:20;;;;;;;;;;;5.10;60.90;;;;;;5015622;28;20054;-88
2023/01/22 05:05:46;;;;;;;;;;;5.10;60.90;;;;;;5015392;28;20039;-88
2023/01/22 05:08:11;;;;;;;;;;;5.10;60.80;;;;;;5014064;28;19987;-88
2023/01/22 05:10:37;;;;;;;;;;;5.00;61.40;;;;;;5014038;28;19976;-88
2023/01/22 05:13:03;;;;;;;;;;;5.00;61.10;;;;;;5015120;28;20074;-88
2023/01/22 05:15:29;;;;;;;;;;;5.00;61.50;;;;;;5015225;28;19947;-88
2023/01/22 05:17:55;;;;;;;;;;;4.90;61.80;;;;;;5017391;28;19948;-88
2023/01/22 05:20:20;;;;;;;;;;;5.00;61.20;;;;;;5013225;28;20382;-88
2023/01/22 05:22:46;;;;;;;;;;;5.00;61.40;;;;;;5014979;28;20077;-88
2023/01/22 05:25:11;;;;;;;;;;;5.00;61.40;;;;;;5015017;28;20360;-88
2023/01/22 05:27:37;;;;;;;;;;;5.00;61.10;;;;;;5015026;28;20407;-88
2023/01/22 05:30:03;;;;;;;;;;;5.00;61.20;;;;;;5014936;28;19965;-88
2023/01/22 05:32:29;;;;;;;;;;;5.00;61.20;;;;;;5014894;28;20460;-88
2023/01/22 05:34:55;;;;;;;;;;;5.00;61.70;;;;;;5014818;28;19944;-87
2023/01/22 05:37:20;;;;;;;;;;;5.00;61.00;;;;;;5014751;28;20333;-88
2023/01/22 05:39:46;;;;;;;;;;;4.90;61.40;;;;;;5014719;28;19973;-88
2023/01/22 05:42:12;;;;;;;;;;;4.90;61.60;;;;;;5014701;28;19997;-88
2023/01/22 05:44:38;;;;;;;;;;;4.90;61.90;;;;;;5016688;28;19967;-88
2023/01/22 05:47:03;;;;;;;;;;;4.90;61.90;;;;;;5034345;28;19945;-88
2023/01/22 05:49:29;;;;;;;;;;;4.90;61.40;;;;;;5033060;28;20369;-88
2023/01/22 05:51:54;;;;;;;;;;;5.00;61.50;;;;;;5034228;28;19940;-88
2023/01/22 05:54:20;;;;;;;;;;;5.00;61.60;;;;;;5032937;28;20420;-88
2023/01/22 05:56:45;;;;;;;;;;;5.00;61.70;;;;;;5034094;28;19997;-88
2023/01/22 05:59:11;;;;;;;;;;;5.00;61.60;;;;;;5032880;28;20032;-88
2023/01/22 06:01:37;;;;;;;;;;;5.00;61.90;;;;;;5034150;28;20401;-88
2023/01/22 06:04:02;;;;;;;;;;;5.00;62.00;;;;;;5033939;28;20047;-88
2023/01/22 06:06:28;;;;;;;;;;;4.90;62.30;;;;;;5032762;28;19987;-88
2023/01/22 06:08:54;;;;;;;;;;;4.90;62.60;;;;;;5033700;28;19950;-87
2023/01/22 06:11:19;;;;;;;;;;;4.90;62.50;;;;;;5034169;28;19983;-88
2023/01/22 06:13:45;;;;;;;;;;;4.90;62.80;;;;;;5027377;28;20006;-88
2023/01/22 06:16:10;;;;;;;;;;;4.80;62.80;;;;;;5014083;28;19938;-88
2023/01/22 06:18:36;;;;;;;;;;;4.80;62.90;;;;;;5032390;28;19948;-89
2023/01/22 06:21:02;;;;;;;;;;;4.70;63.00;;;;;;5033780;28;19940;-88
2023/01/22 06:23:28;;;;;;;;;;;4.70;63.00;;;;;;5033579;28;20117;-88
2023/01/22 06:25:55;;;;;;;;;;;4.80;62.30;;;;;;5033962;28;20046;-88
2023/01/22 06:28:21;;;;;;;;;;;4.80;62.50;;;;;;5033640;28;20009;-88
2023/01/22 06:30:46;;;;;;;;;;;4.80;62.40;;;;;;5033273;28;20460;-88
2023/01/22 06:33:12;;;;;;;;;;;4.80;62.20;;;;;;5033502;28;19946;-88
2023/01/22 06:35:37;;;;;;;;;;;4.90;61.30;;;;;;5033518;28;19983;-88
2023/01/22 06:38:03;;;;;;;;;;;4.90;61.30;;;;;;5033476;28;19980;-88
2023/01/22 06:40:29;;;;;;;;;;;4.90;61.10;;;;;;5033458;28;19993;-88
2023/01/22 06:42:56;;;;;;;;;;;4.90;61.20;;;;;;5033298;28;19938;-88
2023/01/22 06:45:22;;;;;;;;;;;4.90;61.20;;;;;;5033373;28;19940;-88
2023/01/22 06:47:47;;;;;;;;;;;5.00;61.00;;;;;;5020785;28;20030;-88
2023/01/22 06:50:13;;;;;;;;;;;4.90;61.30;;;;;;5013560;28;19997;-88
2023/01/22 06:52:39;;;;;;;;;;;4.80;61.90;;;;;;5013390;28;19961;-88
2023/01/22 06:55:04;;;;;;;;;;;4.80;62.10;;;;;;5013447;28;19943;-88
2023/01/22 06:57:30;;;;;;;;;;;4.90;61.60;;;;;;5013423;28;19941;-88
2023/01/22 06:59:55;;;;;;;;;;;4.80;62.10;;;;;;5013454;28;19941;-88
2023/01/22 07:02:21;;;;;;;;;;;4.80;62.00;;;;;;5013678;28;20296;-88
2023/01/22 07:04:47;;;;;;;;;;;4.80;62.30;;;;;;5013348;28;19960;-88
2023/01/22 07:07:12;;;;;;;;;;;4.80;61.60;;;;;;5013885;28;19983;-88
2023/01/22 07:09:38;;;;;;;;;;;4.90;61.70;;;;;;5013321;28;19988;-88
2023/01/22 07:12:03;;;;;;;;;;;4.90;61.60;;;;;;5013288;28;20473;-88
2023/01/22 07:14:32;;;;;;;;;;;4.90;61.70;;;;;;5013113;28;19985;-88
2023/01/22 07:16:57;;;;;;;;;;;4.90;61.70;;;;;;5013571;28;19946;-88
2023/01/22 07:19:23;;;;;;;;;;;4.90;61.40;;;;;;5012000;28;20555;-88
2023/01/22 07:21:49;;;;;;;;;;;5.00;61.50;;;;;;5013240;28;19945;-88
2023/01/22 07:24:14;;;;;;;;;;;4.90;61.90;;;;;;5013180;28;20061;-88
2023/01/22 07:26:41;;;;;;;;;;;4.90;61.20;;;;;;5013232;28;20028;-88
2023/01/22 07:29:07;;;;;;;;;;;5.00;61.10;;;;;;5013236;28;19988;-87
2023/01/22 07:31:32;;;;;;;;;;;5.00;60.90;;;;;;5013088;28;19943;-88
2023/01/22 07:33:58;;;;;;;;;;;5.00;61.00;;;;;;5013145;28;19988;-88
2023/01/22 07:36:23;;;;;;;;;;;5.10;60.80;;;;;;5013718;28;19948;-88
2023/01/22 07:38:49;;;;;;;;;;;5.10;60.70;;;;;;5032548;28;19940;-88
2023/01/22 07:41:14;;;;;;;;;;;5.20;60.40;;;;;;5032330;28;20310;-88
2023/01/22 07:43:40;;;;;;;;;;;5.20;60.70;;;;;;5036362;28;19962;-88
2023/01/22 07:46:06;;;;;;;;;;;5.20;60.20;;;;;;5036546;28;19967;-88
2023/01/22 07:48:31;;;;;;;;;;;5.20;60.90;;;;;;5036638;28;19948;-88
2023/01/22 07:51:01;;;;;;;;;;;5.20;61.50;;;;;;5036491;28;19937;-88
2023/01/22 07:53:26;;;;;;;;;;;5.30;61.30;;;;;;5036021;28;19956;-88
2023/01/22 07:55:52;;;;;;;;;;;5.30;61.00;;;;;;5036378;28;19950;-88
2023/01/22 07:58:18;;;;;;;;;;;5.30;61.40;;;;;;5036315;28;20342;-88
2023/01/22 08:00:43;;;;;;;;;;;5.40;60.90;;;;;;5036181;28;19959;-88
2023/01/22 08:03:09;;;;;;;;;;;5.40;60.70;;;;;;5036127;28;19951;-88
2023/01/22 08:05:41;;;;;;;;;;;5.40;60.50;;;;;;5036352;28;19945;-88
2023/01/22 08:08:14;;;;;;;;;;;5.40;60.20;;;;;;5035502;28;19955;-88
2023/01/22 08:10:40;;;;;;;;;;;5.50;60.30;;;;;;5036092;28;20521;-88
2023/01/22 08:13:05;;;;;;;;;;;5.50;59.80;;;;;;5036021;28;20075;-88
2023/01/22 08:15:31;;;;;;;;;;;5.60;59.50;;;;;;5035982;28;19951;-88
2023/01/22 08:17:57;;;;;;;;;;;5.60;59.60;;;;;;5034796;28;19943;-88
2023/01/22 08:20:22;;;;;;;;;;;5.70;59.30;;;;;;5036012;28;20425;-88
2023/01/22 08:22:48;;;;;;;;;;;5.70;59.00;;;;;;5034706;28;19948;-88
2023/01/22 08:25:13;;;;;;;;;;;5.70;58.90;;;;;;5034560;28;20410;-88
2023/01/22 08:27:39;;;;;;;;;;;5.80;58.70;;;;;;5035927;28;19963;-88
2023/01/22 08:30:05;;;;;;;;;;;5.80;58.40;;;;;;5035845;28;20035;-88
2023/01/22 08:32:30;;;;;;;;;;;5.90;58.60;;;;;;5035730;28;19976;-88
2023/01/22 08:34:56;;;;;;;;;;;5.90;57.80;;;;;;5035787;28;19939;-88
2023/01/22 08:37:22;;;;;;;;;;;5.90;58.10;;;;;;5024517;28;20302;-87
2023/01/22 08:39:48;;;;;;;;;;;6.00;58.00;;;;;;5015926;28;19941;-88
2023/01/22 08:42:13;;;;;;;;;;;6.00;57.50;;;;;;5015886;28;19959;-88
2023/01/22 08:44:39;;;;;;;;;;;6.10;58.10;;;;;;5014439;28;20345;-88
2023/01/22 08:47:04;;;;;;;;;;;6.10;58.20;;;;;;5015755;28;19945;-88
2023/01/22 08:49:30;;;;;;;;;;;6.20;57.80;;;;;;5015736;28;19946;-88
2023/01/22 08:51:55;;;;;;;;;;;6.30;57.70;;;;;;5015605;28;19972;-88
2023/01/22 08:54:21;;;;;;;;;;;6.40;57.50;;;;;;5015299;28;19947;-88
2023/01/22 08:56:47;;;;;;;;;;;6.40;56.90;;;;;;5015477;28;19942;-88
2023/01/22 08:59:13;;;;;;;;;;;6.50;56.70;;;;;;5015518;28;19944;-88
2023/01/22 09:01:39;;;;;;;;;;;6.60;56.00;;;;;;5015437;28;20035;-88
2023/01/22 09:04:05;;;;;;;;;;;6.70;56.00;;;;;;5015362;28;20078;-88
2023/01/22 09:06:31;;;;;;;;;;;6.80;56.50;;;;;;5019174;28;19967;-88
2023/01/22 09:08:58;;;;;;;;;;;6.80;56.40;;;;;;5034271;28;20316;-88
2023/01/22 09:11:23;;;;;;;;;;;6.90;56.20;;;;;;5035101;28;19938;-88
2023/01/22 09:13:49;;;;;;;;;;;6.90;55.70;;;;;;5061002;22;19984;-89
2023/01/22 09:16:15;;;;;;;;;;;6.90;54.80;;;;;;5074914;28;19939;-88
2023/01/22 09:18:41;;;;;;;;;;;7.00;55.00;;;;;;5073821;28;20437;-88
2023/01/22 09:21:07;;;;;;;;;;;7.10;55.20;;;;;;5074847;28;19940;-88
2023/01/22 09:23:32;;;;;;;;;;;7.20;54.60;;;;;;5074715;28;19959;-88
2023/01/22 09:25:59;;;;;;;;;;;7.20;55.10;;;;;;5074798;28;20309;-88
2023/01/22 09:28:24;;;;;;;;;;;7.20;54.00;;;;;;5070012;28;19944;-88
2023/01/22 09:30:50;;;;;;;;;;;7.20;54.30;;;;;;5054677;28;20357;-89
2023/01/22 09:33:15;;;;;;;;;;;7.20;54.80;;;;;;5054608;28;19944;-88
2023/01/22 09:35:41;;;;;;;;;;;7.30;54.50;;;;;;5054782;28;19950;-88
2023/01/22 09:38:10;;;;;;;;;;;7.30;54.50;;;;;;5069745;28;20543;-88
2023/01/22 09:40:43;;;;;;;;;;;7.20;55.00;;;;;;5074447;28;19994;-88
2023/01/22 09:43:20;;;;;;;;;;;7.30;55.00;;;;;;5074299;28;19938;-88
2023/01/22 09:45:46;;;;;;;;;;;7.30;55.60;;;;;;5074303;28;19964;-88
2023/01/22 09:48:16;;;;;;;;;;;7.30;54.30;;;;;;5058080;28;20399;-88
2023/01/22 09:50:42;;;;;;;;;;;7.30;55.00;;;;;;5036385;28;19950;-88
2023/01/22 09:53:10;;;;;;;;;;;7.30;55.30;;;;;;5054140;28;19958;-88
2023/01/22 09:55:42;;;;;;;;;;;7.30;55.80;;;;;;5054139;28;20011;-89
2023/01/22 09:58:12;;;;;;;;;;;7.30;55.50;;;;;;5054518;28;19948;-88
2023/01/22 10:00:43;;;;;;;;;;;7.30;55.20;;;;;;5054072;28;19988;-89
2023/01/22 10:03:29;;;;;;;;;;;7.40;54.30;;;;;;5036159;28;19947;-88
2023/01/22 10:06:06;;;;;;;;;;;7.50;54.40;;;;;;5042339;28;20416;-88
2023/01/22 10:08:33;;;;;;;;;;;7.60;54.60;;;;;;5071846;28;19946;-88
2023/01/22 10:11:02;;;;;;;;;;;7.80;54.80;;;;;;5073850;28;19945;-88
2023/01/22 10:13:28;;;;;;;;;;;7.80;54.00;;;;;;5073646;28;20027;-88
2023/01/22 10:15:55;;;;;;;;;;;7.90;53.80;;;;;;5073693;28;19936;-88
2023/01/22 10:18:30;;;;;;;;;;;7.90;54.30;;;;;;5057191;28;19948;-88
2023/01/22 10:20:56;;;;;;;;;;;7.90;53.80;;;;;;5053749;28;19936;-88
2023/01/22 10:23:24;;;;;;;;;;;8.20;53.30;;;;;;5053570;28;20051;-88
2023/01/22 10:25:53;;;;;;;;;;;8.20;52.90;;;;;;5053841;28;20058;-89
2023/01/22 10:28:22;;;;;;;;;;;8.30;52.90;;;;;;5069326;28;19946;-88
2023/01/22 10:30:48;;;;;;;;;;;8.40;52.10;;;;;;5073514;28;19939;-88
2023/01/22 10:33:16;;;;;;;;;;;8.40;53.30;;;;;;5073485;28;19939;-88
2023/01/22 10:35:42;;;;;;;;;;;8.40;53.20;;;;;;5073442;28;19991;-88
2023/01/22 10:38:19;;;;;;;;;;;8.40;53.40;;;;;;5059369;28;19944;-88
2023/01/22 10:40:45;;;;;;;;;;;8.50;53.10;;;;;;5053341;28;19944;-87
2023/01/22 10:43:16;;;;;;;;;;;8.40;52.50;;;;;;5053267;28;19946;-88
2023/01/22 10:45:55;;;;;;;;;;;8.40;53.40;;;;;;5053257;28;20080;-87
2023/01/22 10:48:21;;;;;;;;;;;8.40;53.30;;;;;;5068537;28;19944;-88
2023/01/22 10:50:58;;;;;;;;;;;8.20;53.40;;;;;;5073261;28;20289;-88
2023/01/22 10:53:33;;;;;;;;;;;8.20;53.40;;;;;;5073173;28;20003;-88
2023/01/22 10:56:00;;;;;;;;;;;8.20;53.70;;;;;;5073104;28;20035;-88
2023/01/22 10:58:33;;;;;;;;;;;8.30;55.00;;;;;;5057011;28;19947;-88
2023/01/22 11:01:00;;;;;;;;;;;8.40;54.30;;;;;;5035278;28;19945;-88
2023/01/22 11:03:34;;;;;;;;;;;8.50;54.30;;;;;;5052961;28;19965;-88
2023/01/22 11:06:10;;;;;;;;;;;8.70;52.80;;;;;;5053033;28;19940;-88
2023/01/22 11:08:55;;;;;;;;;;;8.90;52.70;;;;;;5069426;28;19955;-88
2023/01/22 11:11:25;;;;;;;;;;;9.00;52.10;;;;;;5073044;28;19977;-88
2023/01/22 11:14:16;;;;;;;;;;;9.30;53.00;;;;;;5072956;28;20032;-88
2023/01/22 11:16:42;;;;;;;;;;;9.30;52.30;;;;;;5042794;28;19949;-88
2023/01/22 11:19:12;;;;;;;;;;;9.40;51.50;;;;;;5057141;28;19939;-87
2023/01/22 11:21:49;;;;;;;;;;;9.50;51.70;;;;;;5057050;28;19965;-88
2023/01/22 11:24:18;;;;;;;;;;;9.60;52.20;;;;;;5039379;28;19969;-88
2023/01/22 11:27:11;;;;;;;;;;;9.70;52.30;;;;;;5057345;28;19940;-88
2023/01/22 11:29:39;;;;;;;;;;;9.80;52.80;;;;;;5034068;28;19944;-87
2023/01/22 11:32:23;;;;;;;;;;;10.10;52.40;;;;;;5056872;28;19947;-88
2023/01/22 11:34:51;;;;;;;;;;;10.20;52.80;;;;;;5056788;28;19948;-88
2023/01/22 11:37:28;;;;;;;;;;;10.30;49.70;;;;;;5061765;28;20378;-88
2023/01/22 11:39:54;;;;;;;;;;;10.40;48.30;;;;;;5076744;28;20386;-88
2023/01/22 11:42:24;;;;;;;;;;;10.50;49.00;;;;;;5076712;28;19941;-88
2023/01/22 11:45:15;;;;;;;;;;;10.70;48.20;;;;;;5076616;28;20417;-88
2023/01/22 11:47:51;;;;;;;;;;;10.90;47.00;;;;;;5063828;28;20355;-88
2023/01/22 11:50:17;;;;;;;;;;;11.00;46.10;;;;;;5056532;28;19943;-88
2023/01/22 11:52:48;;;;;;;;;;;11.00;45.60;;;;;;5072331;28;19967;-88
2023/01/22 11:55:20;;;;;;;;;;;11.00;44.80;;;;;;5076368;28;20458;-88
2023/01/22 11:58:10;;;;;;;;;;;11.30;45.00;;;;;;5075753;28;20457;-88
2023/01/22 12:00:36;;;;;;;;;;;11.40;45.20;;;;;;5076330;28;20391;-88
2023/01/22 12:03:10;;;;;;;;;;;11.50;45.40;;;;;;5076244;28;19935;-88
2023/01/22 12:05:47;;;;;;;;;;;11.40;44.40;;;;;;5076268;28;19943;-89
2023/01/22 12:08:31;;;;;;;;;;;11.70;43.20;;;;;;5063449;28;19948;-88
2023/01/22 12:10:56;;;;;;;;;;;11.90;43.50;;;;;;5056136;28;19977;-89
2023/01/22 12:13:40;;;;;;;;;;;12.00;43.20;;;;;;5055919;28;20127;-88
2023/01/22 12:16:13;;;;;;;;;;;12.20;43.70;;;;;;5038218;28;19956;-88
2023/01/22 12:18:47;;;;;;;;;;;12.20;43.30;;;;;;5071583;28;20424;-88
2023/01/22 12:21:30;;;;;;;;;;;12.10;43.90;;;;;;5076020;28;19948;-89
2023/01/22 12:23:58;;;;;;;;;;;11.90;43.60;;;;;;5057864;28;19963;-88
2023/01/22 12:26:30;;;;;;;;;;;11.80;44.50;;;;;;5075873;28;20034;-88
2023/01/22 12:29:09;;;;;;;;;;;11.60;45.30;;;;;;5056687;28;19952;-88
2023/01/22 12:31:45;;;;;;;;;;;11.20;46.80;;;;;;5037920;28;20004;-88
2023/01/22 12:34:24;;;;;;;;;;;11.10;45.80;;;;;;5055706;28;19950;-88
2023/01/22 12:36:50;;;;;;;;;;;11.30;45.80;;;;;;5038230;28;19939;-88
2023/01/22 12:39:15;;;;;;;;;;;11.40;46.40;;;;;;5075638;28;19952;-88
2023/01/22 12:41:47;;;;;;;;;;;11.90;45.40;;;;;;5075621;28;20127;-88
2023/01/22 12:44:23;;;;;;;;;;;12.40;45.00;;;;;;5075503;28;19969;-88
2023/01/22 12:47:07;;;;;;;;;;;12.90;44.10;;;;;;5074893;28;20410;-88
2023/01/22 12:49:43;;;;;;;;;;;13.10;42.80;;;;;;5055438;28;20038;-89
2023/01/22 12:52:25;;;;;;;;;;;13.50;43.00;;;;;;5063888;28;19972;-88
2023/01/22 12:54:54;;;;;;;;;;;13.70;42.50;;;;;;5064851;28;19947;-89
2023/01/22 12:57:20;;;;;;;;;;;13.50;43.10;;;;;;5055188;28;19940;-89
2023/01/22 12:59:46;;;;;;;;;;;13.10;45.00;;;;;;5055301;28;20416;-88
2023/01/22 13:02:38;;;;;;;;;;;12.80;45.10;;;;;;5055219;28;19940;-88
2023/01/22 13:05:21;;;;;;;;;;;12.40;46.00;;;;;;5069239;28;19956;-88
2023/01/22 13:07:47;;;;;;;;;;;12.20;47.10;;;;;;5075151;28;19939;-88
2023/01/22 13:10:19;;;;;;;;;;;12.70;46.50;;;;;;5075088;28;20421;-88
2023/01/22 13:12:48;;;;;;;;;;;12.80;46.30;;;;;;5074879;28;19941;-88
2023/01/22 13:15:21;;;;;;;;;;;12.60;46.70;;;;;;5059415;28;19949;-88
2023/01/22 13:18:03;;;;;;;;;;;12.30;46.80;;;;;;5054892;28;20082;-88
2023/01/22 13:20:29;;;;;;;;;;;11.60;48.80;;;;;;5054884;28;20373;-88
2023/01/22 13:22:57;;;;;;;;;;;11.30;52.00;;;;;;5055075;28;19948;-88
2023/01/22 13:25:24;;;;;;;;;;;11.10;52.70;;;;;;5070419;28;20053;-88
2023/01/22 13:27:50;;;;;;;;;;;10.90;53.40;;;;;;5074625;28;19943;-88
2023/01/22 13:30:17;;;;;;;;;;;10.80;53.10;;;;;;5074699;28;19946;-88
2023/01/22 13:32:42;;;;;;;;;;;10.70;53.20;;;;;;5074603;28;19950;-88
2023/01/22 13:35:10;;;;;;;;;;;10.60;54.20;;;;;;5060366;28;19947;-89
2023/01/22 13:37:37;;;;;;;;;;;10.60;53.00;;;;;;5054594;28;19970;-89
2023/01/22 13:40:13;;;;;;;;;;;10.40;54.30;;;;;;5053479;28;19941;-88
2023/01/22 13:42:42;;;;;;;;;;;10.30;54.90;;;;;;5054414;28;19944;-88
2023/01/22 13:45:13;;;;;;;;;;;10.30;53.50;;;;;;5068029;28;19962;-88
2023/01/22 13:47:38;;;;;;;;;;;10.30;53.30;;;;;;5074311;28;19947;-88
2023/01/22 13:50:04;;;;;;;;;;;10.60;52.60;;;;;;5074536;28;19941;-89
2023/01/22 13:52:32;;;;;;;;;;;10.80;52.40;;;;;;5074131;28;20063;-88
2023/01/22 13:55:00;;;;;;;;;;;10.80;52.50;;;;;;5061607;28;19949;-89
2023/01/22 13:57:25;;;;;;;;;;;10.90;53.60;;;;;;5054060;28;19943;-88
2023/01/22 14:00:01;;;;;;;;;;;11.30;51.40;;;;;;5054170;28;20403;-89
2023/01/22 14:02:31;;;;;;;;;;;11.90;50.40;;;;;;5036135;28;19943;-88
2023/01/22 14:04:57;;;;;;;;;;;12.80;48.60;;;;;;5065685;28;20042;-88
2023/01/22 14:07:32;;;;;;;;;;;13.30;46.10;;;;;;5073921;28;19972;-88
2023/01/22 14:10:17;;;;;;;;;;;13.70;45.80;;;;;;5073884;28;19947;-89
2023/01/22 14:12:42;;;;;;;;;;;14.20;45.20;;;;;;5073565;28;19982;-89
2023/01/22 14:15:15;;;;;;;;;;;14.50;45.20;;;;;;5060178;28;19995;-88
2023/01/22 14:17:41;;;;;;;;;;;14.70;44.60;;;;;;5053772;28;20006;-89
2023/01/22 14:20:07;;;;;;;;;;;14.60;43.30;;;;;;5053777;28;19945;-89
2023/01/22 14:22:32;;;;;;;;;;;14.30;43.70;;;;;;5053698;28;19939;-88
2023/01/22 14:24:58;;;;;;;;;;;13.80;45.00;;;;;;5065273;28;19964;-88
2023/01/22 14:27:28;;;;;;;;;;;13.40;46.40;;;;;;5073643;28;19966;-88
2023/01/22 14:29:53;;;;;;;;;;;13.10;47.50;;;;;;5073564;28;19940;-89
2023/01/22 14:32:19;;;;;;;;;;;12.80;47.30;;;;;;5072634;28;19991;-88
2023/01/22 14:34:45;;;;;;;;;;;12.60;47.70;;;;;;5054738;28;19949;-88
2023/01/22 14:37:16;;;;;;;;;;;12.70;47.80;;;;;;5073725;28;20424;-89